sensor_id;sensor_type;location;lat;lon;timestamp;temperature;humidity
22224;DHT22;11281;52.194;21.006;2022-07-06T00:01:27;15.90;99.90
22224;DHT22;11281;52.194;21.006;2022-07-06T00:05:29;15.90;99.90
22224;DHT22;11281;52.194;21.006;2022-07-06T00:09:31;15.90;99.90
22224;DHT22;11281;52.194;21.006;2022-07-06T00:13:33;15.80;99.90
22224;DHT22;11281;52.194;21.006;2022-07-06T00:17:35;15.80;99.90
22224;DHT22;11281;52.194;21.006;2022-07-06T00:21:36;15.80;99.90
22224;DHT22;11281;52.194;21.006;2022-07-06T00:25:38;15.80;99.90
22224;DHT22;11281;52.194;21.006;2022-07-06T00:29:39;15.70;99.90
22224;DHT22;11281;52.194;21.006;2022-07-06T00:33:45;15.70;99.90
22224;DHT22;11281;52.194;21.006;2022-07-06T00:37:46;15.70;99.90
22224;DHT22;11281;52.194;21.006;2022-07-06T00:41:48;15.60;99.90
22224;DHT22;11281;52.194;21.006;2022-07-06T00:45:50;15.60;99.90
22224;DHT22;11281;52.194;21.006;2022-07-06T00:49:52;15.60;99.90
22224;DHT22;11281;52.194;21.006;2022-07-06T00:54:12;15.60;99.90
22224;DHT22;11281;52.194;21.006;2022-07-06T00:58:15;15.60;99.90
22224;DHT22;11281;52.194;21.006;2022-07-06T01:02:16;15.70;99.90
22224;DHT22;11281;52.194;21.006;2022-07-06T01:06:18;15.70;99.90
22224;DHT22;11281;52.194;21.006;2022-07-06T01:10:20;15.60;99.90
22224;DHT22;11281;52.194;21.006;2022-07-06T01:14:22;15.60;99.90
22224;DHT22;11281;52.194;21.006;2022-07-06T01:18:24;15.50;99.90
22224;DHT22;11281;52.194;21.006;2022-07-06T01:22:26;15.50;99.90
22224;DHT22;11281;52.194;21.006;2022-07-06T01:26:28;15.60;99.90
22224;DHT22;11281;52.194;21.006;2022-07-06T01:30:30;15.50;99.90
22224;DHT22;11281;52.194;21.006;2022-07-06T01:34:31;15.50;99.90
22224;DHT22;11281;52.194;21.006;2022-07-06T01:38:49;15.60;99.90
22224;DHT22;11281;52.194;21.006;2022-07-06T01:42:51;15.60;99.90
22224;DHT22;11281;52.194;21.006;2022-07-06T01:46:53;15.60;99.90
22224;DHT22;11281;52.194;21.006;2022-07-06T01:50:55;15.60;99.90
22224;DHT22;11281;52.194;21.006;2022-07-06T01:54:57;15.50;99.90
22224;DHT22;11281;52.194;21.006;2022-07-06T01:58:58;15.60;99.90
22224;DHT22;11281;52.194;21.006;2022-07-06T02:03:01;15.60;99.90
22224;DHT22;11281;52.194;21.006;2022-07-06T02:07:02;15.60;99.90
22224;DHT22;11281;52.194;21.006;2022-07-06T02:11:06;15.60;99.90
22224;DHT22;11281;52.194;21.006;2022-07-06T02:15:08;15.50;99.90
22224;DHT22;11281;52.194;21.006;2022-07-06T02:19:10;15.50;99.90
22224;DHT22;11281;52.194;21.006;2022-07-06T02:23:12;15.50;99.90
22224;DHT22;11281;52.194;21.006;2022-07-06T02:27:13;15.50;99.90
22224;DHT22;11281;52.194;21.006;2022-07-06T02:31:15;15.50;99.90
22224;DHT22;11281;52.194;21.006;2022-07-06T02:35:17;15.50;99.90
22224;DHT22;11281;52.194;21.006;2022-07-06T02:39:18;15.40;99.90
22224;DHT22;11281;52.194;21.006;2022-07-06T02:43:20;15.50;99.90
22224;DHT22;11281;52.194;21.006;2022-07-06T02:47:22;15.50;99.90
22224;DHT22;11281;52.194;21.006;2022-07-06T02:51:24;15.40;99.90
22224;DHT22;11281;52.194;21.006;2022-07-06T02:55:25;15.40;99.90
22224;DHT22;11281;52.194;21.006;2022-07-06T02:59:27;15.50;99.90
22224;DHT22;11281;52.194;21.006;2022-07-06T03:03:29;15.40;99.90
22224;DHT22;11281;52.194;21.006;2022-07-06T03:07:31;15.50;99.90
22224;DHT22;11281;52.194;21.006;2022-07-06T03:11:32;15.50;99.90
22224;DHT22;11281;52.194;21.006;2022-07-06T03:15:37;15.60;99.90
22224;DHT22;11281;52.194;21.006;2022-07-06T03:19:39;15.60;99.90
22224;DHT22;11281;52.194;21.006;2022-07-06T03:23:40;15.60;99.90
22224;DHT22;11281;52.194;21.006;2022-07-06T03:27:42;15.70;99.90
22224;DHT22;11281;52.194;21.006;2022-07-06T03:31:43;15.70;99.90
22224;DHT22;11281;52.194;21.006;2022-07-06T03:35:45;15.70;99.90
22224;DHT22;11281;52.194;21.006;2022-07-06T03:39:46;15.70;99.90
22224;DHT22;11281;52.194;21.006;2022-07-06T03:43:48;15.80;99.90
22224;DHT22;11281;52.194;21.006;2022-07-06T03:47:49;15.70;99.90
22224;DHT22;11281;52.194;21.006;2022-07-06T03:51:51;15.80;99.90
22224;DHT22;11281;52.194;21.006;2022-07-06T03:55:52;15.80;99.90
22224;DHT22;11281;52.194;21.006;2022-07-06T04:00:13;15.80;99.90
22224;DHT22;11281;52.194;21.006;2022-07-06T04:04:15;15.90;99.90
22224;DHT22;11281;52.194;21.006;2022-07-06T04:08:16;16.00;99.90
22224;DHT22;11281;52.194;21.006;2022-07-06T04:12:18;16.10;99.90
22224;DHT22;11281;52.194;21.006;2022-07-06T04:16:20;16.00;99.90
22224;DHT22;11281;52.194;21.006;2022-07-06T04:20:22;16.10;99.90
22224;DHT22;11281;52.194;21.006;2022-07-06T04:24:25;15.90;99.90
22224;DHT22;11281;52.194;21.006;2022-07-06T04:28:27;16.00;99.90
22224;DHT22;11281;52.194;21.006;2022-07-06T04:32:28;15.90;99.90
22224;DHT22;11281;52.194;21.006;2022-07-06T04:36:30;15.80;99.90
22224;DHT22;11281;52.194;21.006;2022-07-06T04:40:32;15.90;99.90
22224;DHT22;11281;52.194;21.006;2022-07-06T04:44:33;15.80;99.90
22224;DHT22;11281;52.194;21.006;2022-07-06T04:48:35;15.80;99.90
22224;DHT22;11281;52.194;21.006;2022-07-06T04:52:40;15.80;99.90
22224;DHT22;11281;52.194;21.006;2022-07-06T04:56:41;15.80;99.90
22224;DHT22;11281;52.194;21.006;2022-07-06T05:00:43;15.70;99.90
22224;DHT22;11281;52.194;21.006;2022-07-06T05:04:44;15.80;99.90
22224;DHT22;11281;52.194;21.006;2022-07-06T05:08:47;15.80;99.90
22224;DHT22;11281;52.194;21.006;2022-07-06T05:12:49;15.80;99.90
22224;DHT22;11281;52.194;21.006;2022-07-06T05:16:50;15.80;99.90
22224;DHT22;11281;52.194;21.006;2022-07-06T05:20:52;15.90;99.90
22224;DHT22;11281;52.194;21.006;2022-07-06T05:24:53;15.80;99.90
22224;DHT22;11281;52.194;21.006;2022-07-06T05:28:55;15.80;99.90
22224;DHT22;11281;52.194;21.006;2022-07-06T05:32:57;16.10;99.90
22224;DHT22;11281;52.194;21.006;2022-07-06T05:36:58;16.60;99.90
22224;DHT22;11281;52.194;21.006;2022-07-06T05:41:00;16.70;99.90
22224;DHT22;11281;52.194;21.006;2022-07-06T05:45:02;17.20;99.90
22224;DHT22;11281;52.194;21.006;2022-07-06T05:49:05;17.40;99.90
22224;DHT22;11281;52.194;21.006;2022-07-06T05:53:25;17.20;99.90
22224;DHT22;11281;52.194;21.006;2022-07-06T05:57:27;17.10;99.90
22224;DHT22;11281;52.194;21.006;2022-07-06T06:01:28;17.30;99.90
22224;DHT22;11281;52.194;21.006;2022-07-06T06:05:30;17.30;99.90
22224;DHT22;11281;52.194;21.006;2022-07-06T06:09:32;17.70;99.90
22224;DHT22;11281;52.194;21.006;2022-07-06T06:13:33;18.90;99.90
22224;DHT22;11281;52.194;21.006;2022-07-06T06:17:38;20.20;99.90
22224;DHT22;11281;52.194;21.006;2022-07-06T06:21:40;20.70;99.90
22224;DHT22;11281;52.194;21.006;2022-07-06T06:25:42;19.90;99.90
22224;DHT22;11281;52.194;21.006;2022-07-06T06:29:43;20.20;99.90
22224;DHT22;11281;52.194;21.006;2022-07-06T06:33:45;23.80;99.90
22224;DHT22;11281;52.194;21.006;2022-07-06T06:37:47;23.40;99.90
22224;DHT22;11281;52.194;21.006;2022-07-06T06:41:49;20.50;99.90
22224;DHT22;11281;52.194;21.006;2022-07-06T06:45:51;20.40;99.90
22224;DHT22;11281;52.194;21.006;2022-07-06T06:49:53;19.90;99.90
22224;DHT22;11281;52.194;21.006;2022-07-06T06:53:55;20.60;99.90
22224;DHT22;11281;52.194;21.006;2022-07-06T06:57:56;20.30;99.90
22224;DHT22;11281;52.194;21.006;2022-07-06T07:01:58;20.70;99.90
22224;DHT22;11281;52.194;21.006;2022-07-06T07:05:59;21.20;99.90
22224;DHT22;11281;52.194;21.006;2022-07-06T07:10:01;20.50;99.90
22224;DHT22;11281;52.194;21.006;2022-07-06T07:14:04;21.10;99.90
22224;DHT22;11281;52.194;21.006;2022-07-06T07:18:06;20.50;99.90
22224;DHT22;11281;52.194;21.006;2022-07-06T07:22:07;20.80;99.90
22224;DHT22;11281;52.194;21.006;2022-07-06T07:26:09;20.60;99.90
22224;DHT22;11281;52.194;21.006;2022-07-06T07:30:11;19.90;99.90
22224;DHT22;11281;52.194;21.006;2022-07-06T07:34:12;19.70;99.90
22224;DHT22;11281;52.194;21.006;2022-07-06T07:38:14;20.60;99.90
22224;DHT22;11281;52.194;21.006;2022-07-06T07:42:16;20.40;99.90
22224;DHT22;11281;52.194;21.006;2022-07-06T07:46:17;20.40;99.90
22224;DHT22;11281;52.194;21.006;2022-07-06T07:50:19;20.40;99.90
22224;DHT22;11281;52.194;21.006;2022-07-06T07:54:20;19.60;99.90
22224;DHT22;11281;52.194;21.006;2022-07-06T07:58:22;20.20;99.90
22224;DHT22;11281;52.194;21.006;2022-07-06T08:02:24;19.70;99.90
22224;DHT22;11281;52.194;21.006;2022-07-06T08:06:26;19.60;99.90
22224;DHT22;11281;52.194;21.006;2022-07-06T08:10:28;19.60;99.90
22224;DHT22;11281;52.194;21.006;2022-07-06T08:14:30;19.60;99.90
22224;DHT22;11281;52.194;21.006;2022-07-06T08:18:31;19.80;99.90
22224;DHT22;11281;52.194;21.006;2022-07-06T08:22:35;19.70;99.90
22224;DHT22;11281;52.194;21.006;2022-07-06T08:26:37;19.90;99.90
22224;DHT22;11281;52.194;21.006;2022-07-06T08:30:39;19.90;99.90
22224;DHT22;11281;52.194;21.006;2022-07-06T08:34:40;19.70;99.90
22224;DHT22;11281;52.194;21.006;2022-07-06T08:38:44;19.70;99.90
22224;DHT22;11281;52.194;21.006;2022-07-06T08:42:47;20.30;99.90
22224;DHT22;11281;52.194;21.006;2022-07-06T08:46:52;20.50;99.90
22224;DHT22;11281;52.194;21.006;2022-07-06T08:50:55;20.80;99.90
22224;DHT22;11281;52.194;21.006;2022-07-06T08:54:57;20.70;99.90
22224;DHT22;11281;52.194;21.006;2022-07-06T08:59:00;20.20;99.90
22224;DHT22;11281;52.194;21.006;2022-07-06T09:03:02;20.70;99.90
22224;DHT22;11281;52.194;21.006;2022-07-06T09:07:04;20.20;99.90
22224;DHT22;11281;52.194;21.006;2022-07-06T09:11:05;20.40;99.90
22224;DHT22;11281;52.194;21.006;2022-07-06T09:15:07;20.80;99.90
22224;DHT22;11281;52.194;21.006;2022-07-06T09:19:13;20.70;99.90
22224;DHT22;11281;52.194;21.006;2022-07-06T09:23:16;20.20;99.90
22224;DHT22;11281;52.194;21.006;2022-07-06T09:27:18;20.20;99.90
22224;DHT22;11281;52.194;21.006;2022-07-06T09:31:20;20.60;99.90
22224;DHT22;11281;52.194;21.006;2022-07-06T09:39:37;20.90;99.90
22224;DHT22;11281;52.194;21.006;2022-07-06T09:43:39;21.00;99.90
22224;DHT22;11281;52.194;21.006;2022-07-06T09:47:47;21.20;98.50
22224;DHT22;11281;52.194;21.006;2022-07-06T09:51:56;21.80;99.90
22224;DHT22;11281;52.194;21.006;2022-07-06T09:55:59;21.10;99.90
22224;DHT22;11281;52.194;21.006;2022-07-06T10:00:01;20.70;99.90
22224;DHT22;11281;52.194;21.006;2022-07-06T10:04:11;21.30;99.40
22224;DHT22;11281;52.194;21.006;2022-07-06T10:08:15;20.90;99.90
22224;DHT22;11281;52.194;21.006;2022-07-06T10:12:18;20.40;99.90
22224;DHT22;11281;52.194;21.006;2022-07-06T10:16:22;21.00;99.90
22224;DHT22;11281;52.194;21.006;2022-07-06T10:20:29;20.80;99.90
22224;DHT22;11281;52.194;21.006;2022-07-06T10:24:32;21.20;99.90
22224;DHT22;11281;52.194;21.006;2022-07-06T10:28:42;22.10;99.30
22224;DHT22;11281;52.194;21.006;2022-07-06T10:32:45;22.30;98.00
22224;DHT22;11281;52.194;21.006;2022-07-06T10:36:51;22.30;95.90
22224;DHT22;11281;52.194;21.006;2022-07-06T10:41:05;21.60;98.30
22224;DHT22;11281;52.194;21.006;2022-07-06T10:45:08;22.20;95.80
22224;DHT22;11281;52.194;21.006;2022-07-06T10:49:16;21.70;99.00
22224;DHT22;11281;52.194;21.006;2022-07-06T10:53:28;21.90;99.70
22224;DHT22;11281;52.194;21.006;2022-07-06T10:57:51;22.90;98.60
22224;DHT22;11281;52.194;21.006;2022-07-06T11:06:23;21.50;95.60
22224;DHT22;11281;52.194;21.006;2022-07-06T11:10:25;21.30;96.60
22224;DHT22;11281;52.194;21.006;2022-07-06T11:14:34;21.20;98.50
22224;DHT22;11281;52.194;21.006;2022-07-06T11:18:41;21.40;99.90
22224;DHT22;11281;52.194;21.006;2022-07-06T11:22:48;22.00;99.90
22224;DHT22;11281;52.194;21.006;2022-07-06T11:26:52;22.10;92.50
22224;DHT22;11281;52.194;21.006;2022-07-06T11:30:55;22.40;99.50
22224;DHT22;11281;52.194;21.006;2022-07-06T11:34:56;22.50;97.80
22224;DHT22;11281;52.194;21.006;2022-07-06T11:38:59;21.70;99.90
22224;DHT22;11281;52.194;21.006;2022-07-06T11:43:01;21.40;99.90
22224;DHT22;11281;52.194;21.006;2022-07-06T11:47:03;21.90;99.90
22224;DHT22;11281;52.194;21.006;2022-07-06T11:51:07;22.20;93.80
22224;DHT22;11281;52.194;21.006;2022-07-06T11:55:08;22.70;93.70
22224;DHT22;11281;52.194;21.006;2022-07-06T11:59:10;22.60;97.40
22224;DHT22;11281;52.194;21.006;2022-07-06T12:03:15;22.00;94.40
22224;DHT22;11281;52.194;21.006;2022-07-06T12:07:17;22.00;99.90
22224;DHT22;11281;52.194;21.006;2022-07-06T12:11:27;21.60;95.60
22224;DHT22;11281;52.194;21.006;2022-07-06T12:15:30;22.00;92.10
22224;DHT22;11281;52.194;21.006;2022-07-06T12:19:33;22.70;92.60
22224;DHT22;11281;52.194;21.006;2022-07-06T12:23:39;22.70;93.30
22224;DHT22;11281;52.194;21.006;2022-07-06T12:27:42;23.00;99.30
22224;DHT22;11281;52.194;21.006;2022-07-06T12:31:55;22.00;92.90
22224;DHT22;11281;52.194;21.006;2022-07-06T12:36:17;21.90;96.70
22224;DHT22;11281;52.194;21.006;2022-07-06T12:40:18;22.20;96.80
22224;DHT22;11281;52.194;21.006;2022-07-06T12:44:22;21.90;94.50
22224;DHT22;11281;52.194;21.006;2022-07-06T12:48:25;21.60;93.90
22224;DHT22;11281;52.194;21.006;2022-07-06T12:52:28;21.30;99.50
22224;DHT22;11281;52.194;21.006;2022-07-06T12:56:30;21.40;97.80
22224;DHT22;11281;52.194;21.006;2022-07-06T13:00:44;21.60;98.40
22224;DHT22;11281;52.194;21.006;2022-07-06T13:09:00;22.60;93.70
22224;DHT22;11281;52.194;21.006;2022-07-06T13:13:02;22.70;91.40
22224;DHT22;11281;52.194;21.006;2022-07-06T13:17:04;22.60;93.90
22224;DHT22;11281;52.194;21.006;2022-07-06T13:21:06;22.70;94.60
22224;DHT22;11281;52.194;21.006;2022-07-06T13:25:08;22.30;88.20
22224;DHT22;11281;52.194;21.006;2022-07-06T13:29:09;22.30;85.70
22224;DHT22;11281;52.194;21.006;2022-07-06T13:33:12;22.90;91.80
22224;DHT22;11281;52.194;21.006;2022-07-06T13:37:13;22.80;96.50
22224;DHT22;11281;52.194;21.006;2022-07-06T13:41:15;22.30;88.40
22224;DHT22;11281;52.194;21.006;2022-07-06T13:45:17;22.00;86.00
22224;DHT22;11281;52.194;21.006;2022-07-06T13:49:19;21.90;92.80
22224;DHT22;11281;52.194;21.006;2022-07-06T13:53:20;22.10;92.60
22224;DHT22;11281;52.194;21.006;2022-07-06T13:57:22;22.10;95.00
22224;DHT22;11281;52.194;21.006;2022-07-06T14:01:24;21.60;94.20
22224;DHT22;11281;52.194;21.006;2022-07-06T14:05:28;21.70;94.60
22224;DHT22;11281;52.194;21.006;2022-07-06T14:09:31;21.60;92.80
22224;DHT22;11281;52.194;21.006;2022-07-06T14:13:33;21.40;93.50
22224;DHT22;11281;52.194;21.006;2022-07-06T14:17:35;21.40;91.80
22224;DHT22;11281;52.194;21.006;2022-07-06T14:21:37;21.40;91.30
22224;DHT22;11281;52.194;21.006;2022-07-06T14:25:39;21.30;94.80
22224;DHT22;11281;52.194;21.006;2022-07-06T14:29:41;21.30;91.50
22224;DHT22;11281;52.194;21.006;2022-07-06T14:33:43;21.20;92.90
22224;DHT22;11281;52.194;21.006;2022-07-06T14:37:45;21.30;94.40
22224;DHT22;11281;52.194;21.006;2022-07-06T14:41:48;21.20;93.40
22224;DHT22;11281;52.194;21.006;2022-07-06T14:45:50;21.20;99.90
22224;DHT22;11281;52.194;21.006;2022-07-06T14:49:55;21.10;98.10
22224;DHT22;11281;52.194;21.006;2022-07-06T14:53:57;21.00;92.80
22224;DHT22;11281;52.194;21.006;2022-07-06T14:57:58;21.00;97.70
22224;DHT22;11281;52.194;21.006;2022-07-06T15:02:00;20.90;98.20
22224;DHT22;11281;52.194;21.006;2022-07-06T15:06:02;20.80;95.70
22224;DHT22;11281;52.194;21.006;2022-07-06T15:10:05;20.90;99.90
22224;DHT22;11281;52.194;21.006;2022-07-06T15:14:07;20.80;98.80
22224;DHT22;11281;52.194;21.006;2022-07-06T15:18:11;20.60;99.60
22224;DHT22;11281;52.194;21.006;2022-07-06T15:22:13;20.40;99.90
22224;DHT22;11281;52.194;21.006;2022-07-06T15:26:15;20.00;99.90
22224;DHT22;11281;52.194;21.006;2022-07-06T15:30:17;19.60;99.90
22224;DHT22;11281;52.194;21.006;2022-07-06T15:34:19;19.50;99.90
22224;DHT22;11281;52.194;21.006;2022-07-06T15:38:20;19.40;99.90
22224;DHT22;11281;52.194;21.006;2022-07-06T15:42:22;19.30;99.90
22224;DHT22;11281;52.194;21.006;2022-07-06T15:46:24;19.20;99.90
22224;DHT22;11281;52.194;21.006;2022-07-06T15:50:26;19.20;99.90
22224;DHT22;11281;52.194;21.006;2022-07-06T15:54:27;19.00;99.90
22224;DHT22;11281;52.194;21.006;2022-07-06T15:58:29;19.00;99.90
22224;DHT22;11281;52.194;21.006;2022-07-06T16:02:30;18.90;99.90
22224;DHT22;11281;52.194;21.006;2022-07-06T16:06:32;18.90;99.90
22224;DHT22;11281;52.194;21.006;2022-07-06T16:10:34;18.80;99.90
22224;DHT22;11281;52.194;21.006;2022-07-06T16:14:36;18.80;99.90
22224;DHT22;11281;52.194;21.006;2022-07-06T16:18:38;18.70;99.90
22224;DHT22;11281;52.194;21.006;2022-07-06T16:22:41;18.60;99.90
22224;DHT22;11281;52.194;21.006;2022-07-06T16:26:43;18.50;99.90
22224;DHT22;11281;52.194;21.006;2022-07-06T16:30:45;18.60;99.90
22224;DHT22;11281;52.194;21.006;2022-07-06T16:34:47;18.60;99.90
22224;DHT22;11281;52.194;21.006;2022-07-06T16:38:48;18.40;99.90
22224;DHT22;11281;52.194;21.006;2022-07-06T16:42:50;18.40;99.90
22224;DHT22;11281;52.194;21.006;2022-07-06T16:46:51;18.30;99.90
22224;DHT22;11281;52.194;21.006;2022-07-06T16:50:53;18.40;99.90
22224;DHT22;11281;52.194;21.006;2022-07-06T16:54:58;18.40;99.90
22224;DHT22;11281;52.194;21.006;2022-07-06T16:59:00;18.50;99.90
22224;DHT22;11281;52.194;21.006;2022-07-06T17:03:02;18.40;99.90
22224;DHT22;11281;52.194;21.006;2022-07-06T17:07:04;18.30;99.90
22224;DHT22;11281;52.194;21.006;2022-07-06T17:11:05;18.30;99.90
22224;DHT22;11281;52.194;21.006;2022-07-06T17:15:08;18.20;99.90
22224;DHT22;11281;52.194;21.006;2022-07-06T17:19:10;18.10;99.90
22224;DHT22;11281;52.194;21.006;2022-07-06T17:23:12;18.10;99.90
22224;DHT22;11281;52.194;21.006;2022-07-06T17:27:14;17.90;99.90
22224;DHT22;11281;52.194;21.006;2022-07-06T17:31:16;18.00;99.90
22224;DHT22;11281;52.194;21.006;2022-07-06T17:35:18;18.00;99.90
22224;DHT22;11281;52.194;21.006;2022-07-06T17:39:19;18.00;99.90
22224;DHT22;11281;52.194;21.006;2022-07-06T17:43:21;18.00;99.90
22224;DHT22;11281;52.194;21.006;2022-07-06T17:47:23;18.00;99.90
22224;DHT22;11281;52.194;21.006;2022-07-06T17:51:25;18.00;99.90
22224;DHT22;11281;52.194;21.006;2022-07-06T17:55:27;17.90;99.90
22224;DHT22;11281;52.194;21.006;2022-07-06T17:59:29;17.90;99.90
22224;DHT22;11281;52.194;21.006;2022-07-06T18:03:31;17.80;99.90
22224;DHT22;11281;52.194;21.006;2022-07-06T18:07:33;17.70;99.90
22224;DHT22;11281;52.194;21.006;2022-07-06T18:11:34;17.70;99.90
22224;DHT22;11281;52.194;21.006;2022-07-06T18:15:36;17.70;99.90
22224;DHT22;11281;52.194;21.006;2022-07-06T18:19:38;17.50;99.90
22224;DHT22;11281;52.194;21.006;2022-07-06T18:23:40;17.50;99.90
22224;DHT22;11281;52.194;21.006;2022-07-06T18:27:42;17.30;99.90
22224;DHT22;11281;52.194;21.006;2022-07-06T18:31:43;17.30;99.90
22224;DHT22;11281;52.194;21.006;2022-07-06T18:35:45;17.30;99.90
22224;DHT22;11281;52.194;21.006;2022-07-06T18:39:47;17.30;99.90
22224;DHT22;11281;52.194;21.006;2022-07-06T18:43:50;17.30;99.90
22224;DHT22;11281;52.194;21.006;2022-07-06T18:47:52;17.20;99.90
22224;DHT22;11281;52.194;21.006;2022-07-06T18:51:54;17.10;99.90
22224;DHT22;11281;52.194;21.006;2022-07-06T18:55:55;17.10;99.90
22224;DHT22;11281;52.194;21.006;2022-07-06T18:59:58;17.10;99.90
22224;DHT22;11281;52.194;21.006;2022-07-06T19:04:00;17.00;99.90
22224;DHT22;11281;52.194;21.006;2022-07-06T19:08:01;16.90;99.90
22224;DHT22;11281;52.194;21.006;2022-07-06T19:12:03;16.80;99.90
22224;DHT22;11281;52.194;21.006;2022-07-06T19:16:06;16.70;99.90
22224;DHT22;11281;52.194;21.006;2022-07-06T19:20:10;16.60;99.90
22224;DHT22;11281;52.194;21.006;2022-07-06T19:24:12;16.50;99.90
22224;DHT22;11281;52.194;21.006;2022-07-06T19:28:14;16.40;99.90
22224;DHT22;11281;52.194;21.006;2022-07-06T19:32:16;16.40;99.90
22224;DHT22;11281;52.194;21.006;2022-07-06T19:36:17;16.10;99.90
22224;DHT22;11281;52.194;21.006;2022-07-06T19:40:19;16.00;99.90
22224;DHT22;11281;52.194;21.006;2022-07-06T19:44:20;15.80;99.90
22224;DHT22;11281;52.194;21.006;2022-07-06T19:48:22;15.50;99.90
22224;DHT22;11281;52.194;21.006;2022-07-06T19:52:24;15.20;99.90
22224;DHT22;11281;52.194;21.006;2022-07-06T19:56:26;15.10;99.90
22224;DHT22;11281;52.194;21.006;2022-07-06T20:00:28;14.90;99.90
22224;DHT22;11281;52.194;21.006;2022-07-06T20:04:30;14.80;99.90
22224;DHT22;11281;52.194;21.006;2022-07-06T20:08:32;14.60;99.90
22224;DHT22;11281;52.194;21.006;2022-07-06T20:12:34;14.40;99.90
22224;DHT22;11281;52.194;21.006;2022-07-06T20:16:36;14.50;99.90
22224;DHT22;11281;52.194;21.006;2022-07-06T20:20:38;14.50;99.90
22224;DHT22;11281;52.194;21.006;2022-07-06T20:24:39;14.30;99.90
22224;DHT22;11281;52.194;21.006;2022-07-06T20:28:41;14.10;99.90
22224;DHT22;11281;52.194;21.006;2022-07-06T20:32:42;13.90;99.90
22224;DHT22;11281;52.194;21.006;2022-07-06T20:36:44;13.80;99.90
22224;DHT22;11281;52.194;21.006;2022-07-06T20:40:46;13.70;99.90
22224;DHT22;11281;52.194;21.006;2022-07-06T20:44:48;13.50;99.90
22224;DHT22;11281;52.194;21.006;2022-07-06T20:48:50;13.60;99.90
22224;DHT22;11281;52.194;21.006;2022-07-06T20:52:51;13.90;99.90
22224;DHT22;11281;52.194;21.006;2022-07-06T20:56:53;14.20;99.90
22224;DHT22;11281;52.194;21.006;2022-07-06T21:00:55;14.40;99.90
22224;DHT22;11281;52.194;21.006;2022-07-06T21:04:56;14.40;99.90
22224;DHT22;11281;52.194;21.006;2022-07-06T21:08:58;14.20;99.90
22224;DHT22;11281;52.194;21.006;2022-07-06T21:13:00;14.10;99.90
22224;DHT22;11281;52.194;21.006;2022-07-06T21:17:04;13.80;99.90
22224;DHT22;11281;52.194;21.006;2022-07-06T21:21:09;13.70;99.90
22224;DHT22;11281;52.194;21.006;2022-07-06T21:25:11;13.60;99.90
22224;DHT22;11281;52.194;21.006;2022-07-06T21:29:14;13.70;99.90
22224;DHT22;11281;52.194;21.006;2022-07-06T21:33:16;13.90;99.90
22224;DHT22;11281;52.194;21.006;2022-07-06T21:37:19;13.90;99.90
22224;DHT22;11281;52.194;21.006;2022-07-06T21:41:29;13.80;99.90
22224;DHT22;11281;52.194;21.006;2022-07-06T21:45:31;13.90;99.90
22224;DHT22;11281;52.194;21.006;2022-07-06T21:49:32;14.00;99.90
22224;DHT22;11281;52.194;21.006;2022-07-06T21:53:34;13.80;99.90
22224;DHT22;11281;52.194;21.006;2022-07-06T21:57:36;13.60;99.90
22224;DHT22;11281;52.194;21.006;2022-07-06T22:01:38;13.60;99.90
22224;DHT22;11281;52.194;21.006;2022-07-06T22:05:39;13.50;99.90
22224;DHT22;11281;52.194;21.006;2022-07-06T22:09:42;13.60;99.90
22224;DHT22;11281;52.194;21.006;2022-07-06T22:13:44;13.60;99.90
22224;DHT22;11281;52.194;21.006;2022-07-06T22:17:48;13.60;99.90
22224;DHT22;11281;52.194;21.006;2022-07-06T22:21:50;13.50;99.90
22224;DHT22;11281;52.194;21.006;2022-07-06T22:25:54;13.40;99.90
22224;DHT22;11281;52.194;21.006;2022-07-06T22:29:55;13.30;99.90
22224;DHT22;11281;52.194;21.006;2022-07-06T22:33:57;13.10;99.90
22224;DHT22;11281;52.194;21.006;2022-07-06T22:37:59;13.10;99.90
22224;DHT22;11281;52.194;21.006;2022-07-06T22:42:01;12.90;99.90
22224;DHT22;11281;52.194;21.006;2022-07-06T22:46:05;12.80;99.90
22224;DHT22;11281;52.194;21.006;2022-07-06T22:50:08;12.80;99.90
22224;DHT22;11281;52.194;21.006;2022-07-06T22:54:09;12.80;99.90
22224;DHT22;11281;52.194;21.006;2022-07-06T22:58:11;12.80;99.90
22224;DHT22;11281;52.194;21.006;2022-07-06T23:02:16;12.70;99.90
22224;DHT22;11281;52.194;21.006;2022-07-06T23:06:22;12.70;99.90
22224;DHT22;11281;52.194;21.006;2022-07-06T23:10:26;12.70;99.90
22224;DHT22;11281;52.194;21.006;2022-07-06T23:14:28;12.80;99.90
22224;DHT22;11281;52.194;21.006;2022-07-06T23:18:30;12.70;99.90
22224;DHT22;11281;52.194;21.006;2022-07-06T23:22:32;12.70;99.90
22224;DHT22;11281;52.194;21.006;2022-07-06T23:26:33;12.80;99.90
22224;DHT22;11281;52.194;21.006;2022-07-06T23:30:35;12.80;99.90
22224;DHT22;11281;52.194;21.006;2022-07-06T23:34:37;12.80;99.90
22224;DHT22;11281;52.194;21.006;2022-07-06T23:38:39;12.90;99.90
22224;DHT22;11281;52.194;21.006;2022-07-06T23:42:40;13.00;99.90
22224;DHT22;11281;52.194;21.006;2022-07-06T23:46:42;13.00;99.90
22224;DHT22;11281;52.194;21.006;2022-07-06T23:50:43;13.00;99.90
22224;DHT22;11281;52.194;21.006;2022-07-06T23:54:45;13.00;99.90
22224;DHT22;11281;52.194;21.006;2022-07-06T23:58:47;13.00;99.90
